Tuesday, April 24, 2018, 9:04 PM EDT
Back to Local

KPSM, Pease Air Force Base / Portsmouth

Location: Portsmouth, NH, United States Lat: 43.083
Local Time: 9:04 PM EDT ( 1:04 GMT) Lon: -70.817
Time Zone: US/Eastern Elev: 101 ft

Show me the last for .
Show Decoded

2018-04-24 19:56 METAR KPSM 242356Z 17008KT 10SM OVC200 14/02 A3020 RMK AO2A SLP229 T01420024
                 10198 20142 55003 =
2018-04-24 18:56 METAR KPSM 242256Z 16009KT 10SM OVC200 15/03 A3019 RMK AO2A SLP226 T01510026 =
2018-04-24 17:56 METAR KPSM 242156Z 16014KT 10SM BKN200 16/01 A3020 RMK AO2A SLP229 T01600013 =
2018-04-24 16:56 METAR KPSM 242056Z 16016G23KT 10SM BKN200 18/01 A3021 RMK AO2A SLP233 T01800011
                 57017 =
2018-04-24 15:56 METAR KPSM 241956Z 14015KT 10SM BKN200 18/01 A3022 RMK AO2A SLP236 T01820008 =
2018-04-24 14:56 METAR KPSM 241856Z 15019KT 10SM SCT200 20/00 A3023 RMK AO2A SLP239 T01950000 =
2018-04-24 13:56 METAR KPSM 241756Z 13014KT 10SM BKN200 19/00 A3026 RMK AO2A SLP249 T01941001
                 10209 20081 57024 =
2018-04-24 12:56 METAR KPSM 241656Z 20008KT 10SM BKN200 21/M05 A3028 RMK AO2A SLP256 T02051047 =
2018-04-24 11:56 METAR KPSM 241556Z 21005KT 10SM BKN200 20/M03 A3031 RMK AO2A SLP266 T01991031 =
2018-04-24 10:56 METAR KPSM 241456Z 22006KT 10SM BKN200 18/M02 A3033 RMK AO2A SLP273 T01821016
                 58015 =
2018-04-24 09:56 METAR KPSM 241356Z 24007KT 10SM BKN250 15/M03 A3036 RMK AO2A SLP283 T01501034 =
2018-04-24 08:56 METAR KPSM 241256Z 21006KT 10SM BKN250 12/M02 A3037 RMK AO2A SLP287 T01161022 =
2018-04-24 07:56 METAR KPSM 241156Z 20005KT 10SM SCT250 08/M03 A3037 RMK AO2A SLP287 T00801032
                 10080 20025 53004 =
2018-04-24 05:56 METAR KPSM 240956Z 00000KT 10SM BKN250 03/M05 A3036 RMK AO2A SLP284 T00251052 =
2018-04-23 22:56 METAR KPSM 240256Z COR 19005KT 10SM CLR 08/M05 A3039 RMK AO2A SLP294 T00801048
                 50003 COR 0257 =
2018-04-23 21:56 METAR KPSM 240156Z 16006KT 10SM CLR 08/M05 A3039 RMK AO2A SLP294 T00811054 =

Support USWX by starting your Amazon purchase here.